ADDS TAF Board (Experimental) INFO Settings

IDs: Format: Expanded Condensed

KSFO - San Francisco Intl, CA, US

Issued at 2333 UTC 26 Apr 2015
Updated at: 0015 UTC 27 Apr 2015
Time2356Z 27/01Z 27/02Z 27/03Z 27/04Z 27/05Z 27/06Z 27/07Z 27/08Z 27/09Z 27/10Z 27/11Z 27/12Z 27/13Z
Type OBS PRVL
  [TEMP]  
PRVL
  [TEMP]  
PRVL
  [TEMP]  
PRVL PRVL PRVL PRVL PRVL PRVL PRVL PRVL PRVL PRVL
VIS 10 >6 >6 >6 >6 >6 >6 >6 >6 >6 >6 >6 >6 >6
CIG -- --
  [--]  
--
  [--]  
--
  [--]  
-- -- -- -- -- -- -- -- -- --
Cover SCT SCT
  [SCT]  
SCT
  [SCT]  
SCT
  [SCT]  
SCT SCT SCT SCT SCT SCT SCT FEW FEW FEW
FltCat VFR VFR
  [VFR]  
VFR
  [VFR]  
VFR
  [VFR]  
VFR VFR VFR VFR VFR VFR VFR VFR VFR VFR
WX -- --
  [--]  
--
  [--]  
--
  [--]  
-- -- -- -- -- -- -- -- -- --
WDir 260 270
[270]
270
[270]
270
[270]
270 270 270 270 270 270 270 270 270 280
WSpd 23 22
  [23]  
22
  [23]  
22
  [23]  
22 22 22 22 22 22 22 15 15 9
WGst 29 --
  [30]  
--
  [30]  
--
  [30]  
-- -- -- -- -- -- -- -- -- --
R01/19
XWnd 18 20 20 20 20 20 20 20 20 20 20 13 13 9
XGst 23 0 0 0 -- -- -- -- -- -- -- -- -- --
HWnd -14 -10 -10 -10 -10 -10 -10 -10 -10 -10 -10 -7 -7 -3
HGst -17 0 0 0 -- -- -- -- -- -- -- -- -- --
R10/28
XWnd -14 -10 -10 -10 -10 -10 -10 -10 -10 -10 -10 -7 -7 -3
XGst -17 0 0 0 -- -- -- -- -- -- -- -- -- --
HWnd -18 -20 -20 -20 -20 -20 -20 -20 -20 -20 -20 -13 -13 -9
HGst -23 0 0 0 -- -- -- -- -- -- -- -- -- --

NOTE: TEMPO conditions in [brackets]. Keep in mind TEMPO conditions might be better (lower impact) than prevailing conditions.

Raw TAF
KSFO 262333Z 2700/2806 27022KT P6SM SCT200
  TEMPO 2700/2704 27023G30KT
  FM271100 27015KT P6SM FEW008
  FM271300 28009KT P6SM FEW008
  FM271600 03006KT P6SM SKC
  FM272000 30016KT P6SM SKC


Raw METAR
KSFO 262356Z 26023G29KT 10SM FEW016 SCT200 17/09 A3010 RMK AO2 PK WND 26030/2305 SLP193 T01720094 10194 20167 58014
KSFO 262256Z 26022KT 10SM SCT200 18/09 A3012 RMK AO2 PK WND 26026/2256 SLP198 T01780094
KSFO 262156Z 27020KT 10SM SCT200 18/09 A3014 RMK AO2 SLP205 T01830089

METAR Board
Radar Display
Forecast Discussion

TAF Board Legend

Potential Impact
Threat None Slight Moderate High
Visibility (sm) ≥5.1 5.1>X≥3 3>X≥1 <1
Ceiling (100 ft) ≥30.1 30.1>X≥10 10>X≥5 <5
Wind Speed (kt) <10 10≤X<20 20≤X<30 ≥30
Wind Gust (kt) <15 15≤X<25 25≤X<35 ≥35
Weather No Wx Reported VCTS,-TS,-FZRA,SN TS,FZRA +TS,+FZRA,+SN